Weather at Ramstein Air Base

Public forecast

Using degrees Celsius for public forecast. Weather courtesy of forecast.io.

Current aviation weather report (METAR) for Ramstein Air Base

2024/03/01 00:55 (retrieved 50 minutes ago)

ETAR 010055Z AUTO 00000KT 9999 CLR M01/M02 A2971 RMK AO2 SLP069 T10111018

Aviation forecast (TAF) for Ramstein Air Base

Forecast is more than 6 hours old.

2024/02/29 18:03 (retrieved 8 hours ago)

TAF TAF ETAR 291800Z 2918/0124 VRB06KT 9999 SCT050 QNH2976INS BECMG 0104/0105 25010G15KT 9999 BKN020 QNH2968INS BECMG 0107/0108 26010G20KT 9999 BKN020 510005 QNH2970INS TEMPO 0108/0113 BKN010 BECMG 0119/0120 18012KT 9999 SCT040 QNH2965INS TX10/0114Z TN02/2922Z